Time;durP1;ratioP1;P1;durP2;ratioP2;P2;SDS_P1;SDS_P2;PMS_P1;PMS_P2;Temp;Humidity;BMP_temperature;BMP_pressure;BME280_temperature;BME280_humidity;BME280_pressure;Samples;Min_cycle;Max_cycle;Signal;HPM_P1;HPM_P2
2023/09/28 00:02:22;;;;;;;3.20;3.00;;;20.40;99.90;;;;;;4988208;28;20219;-66
2023/09/28 00:04:50;;;;;;;3.30;3.10;;;20.40;99.90;;;;;;4990851;28;20200;-66
2023/09/28 00:07:17;;;;;;;4.05;3.47;;;20.40;99.90;;;;;;4982520;28;20266;-66
2023/09/28 00:09:43;;;;;;;3.22;3.03;;;20.30;99.90;;;;;;4985037;28;20191;-66
2023/09/28 00:12:10;;;;;;;3.53;3.05;;;20.30;99.90;;;;;;4969741;28;20311;-66
2023/09/28 00:14:38;;;;;;;3.40;3.10;;;20.30;99.90;;;;;;4973884;28;20220;-66
2023/09/28 00:17:08;;;;;;;3.42;3.13;;;20.30;99.90;;;;;;4987311;28;20206;-66
2023/09/28 00:19:34;;;;;;;3.10;2.90;;;20.30;99.90;;;;;;4990518;28;20199;-66
2023/09/28 00:22:01;;;;;;;4.22;3.15;;;20.30;99.90;;;;;;4984035;28;20269;-66
2023/09/28 00:24:28;;;;;;;3.20;2.90;;;20.30;99.90;;;;;;4976433;28;20205;-66
2023/09/28 00:26:56;;;;;;;3.92;2.55;;;20.30;99.90;;;;;;4986716;28;20198;-66
2023/09/28 00:29:22;;;;;;;3.17;2.92;;;20.30;99.90;;;;;;4990312;28;20552;-66
2023/09/28 00:31:51;;;;;;;3.13;2.85;;;20.20;99.90;;;;;;4984008;28;20184;-66
2023/09/28 00:34:18;;;;;;;3.28;2.97;;;20.20;99.90;;;;;;4991159;28;20188;-65
2023/09/28 00:36:45;;;;;;;3.42;3.22;;;20.20;99.90;;;;;;4973393;28;20257;-66
2023/09/28 00:39:12;;;;;;;3.70;3.40;;;20.20;99.90;;;;;;4982018;28;20235;-65
2023/09/28 00:41:39;;;;;;;3.38;3.08;;;20.20;99.90;;;;;;4984697;28;20199;-65
2023/09/28 00:44:05;;;;;;;4.22;3.78;;;20.20;99.90;;;;;;4962505;28;20262;-65
2023/09/28 00:46:33;;;;;;;3.70;3.40;;;20.20;99.90;;;;;;4971928;28;20199;-65
2023/09/28 00:49:04;;;;;;;4.05;3.70;;;20.20;99.90;;;;;;4989966;28;20231;-65
2023/09/28 00:51:33;;;;;;;3.58;3.28;;;20.20;99.90;;;;;;4984988;28;20414;-66
2023/09/28 00:54:00;;;;;;;4.68;3.08;;;20.20;99.90;;;;;;4971876;28;20590;-66
2023/09/28 00:56:29;;;;;;;3.35;3.15;;;20.20;99.90;;;;;;4971492;28;20238;-66
2023/09/28 00:58:56;;;;;;;5.57;3.10;;;20.20;99.90;;;;;;4966118;28;20195;-66
2023/09/28 01:01:26;;;;;;;3.53;3.22;;;20.20;99.90;;;;;;4976942;28;20212;-66
2023/09/28 01:03:55;;;;;;;3.38;3.13;;;20.20;99.90;;;;;;4989730;28;20538;-66
2023/09/28 01:06:24;;;;;;;3.50;3.20;;;20.20;99.90;;;;;;4968734;28;20311;-66
2023/09/28 01:08:52;;;;;;;3.67;3.13;;;20.20;99.90;;;;;;4963029;28;20199;-66
2023/09/28 01:11:20;;;;;;;3.33;3.03;;;20.20;99.90;;;;;;4983409;28;20189;-66
2023/09/28 01:13:47;;;;;;;2.95;2.75;;;20.20;99.90;;;;;;4983912;28;20295;-66
2023/09/28 01:16:13;;;;;;;3.38;3.17;;;20.10;99.90;;;;;;4984792;28;20258;-66
2023/09/28 01:18:41;;;;;;;3.05;2.85;;;20.10;99.90;;;;;;4971885;28;20250;-66
2023/09/28 01:21:10;;;;;;;3.20;3.00;;;20.10;99.90;;;;;;4964009;28;20326;-66
2023/09/28 01:23:39;;;;;;;3.28;3.08;;;20.00;99.90;;;;;;4989698;28;20191;-66
2023/09/28 01:26:06;;;;;;;3.65;3.35;;;20.00;99.90;;;;;;4985291;28;20238;-66
2023/09/28 01:28:34;;;;;;;3.35;3.15;;;20.00;99.90;;;;;;4986005;28;20192;-66
2023/09/28 01:31:01;;;;;;;4.38;3.72;;;19.90;99.90;;;;;;4985586;28;20703;-66
2023/09/28 01:33:29;;;;;;;4.30;3.88;;;19.90;99.90;;;;;;4968023;28;20209;-66
2023/09/28 01:35:55;;;;;;;6.88;3.67;;;19.90;99.90;;;;;;4971074;28;20291;-66
2023/09/28 01:38:28;;;;;;;3.70;3.40;;;19.90;99.90;;;;;;4929648;28;1157624;-66
2023/09/28 01:40:57;;;;;;;3.20;3.00;;;19.90;99.90;;;;;;4965627;28;20216;-66
2023/09/28 01:43:24;;;;;;;4.45;4.07;;;19.80;99.90;;;;;;4981015;28;20279;-66
2023/09/28 01:45:50;;;;;;;4.55;4.15;;;19.80;99.90;;;;;;4989480;28;20199;-66
2023/09/28 01:48:18;;;;;;;3.70;3.40;;;19.80;99.90;;;;;;4984877;28;20231;-66
2023/09/28 01:50:44;;;;;;;5.72;4.20;;;19.70;99.90;;;;;;4971859;28;20291;-66
2023/09/28 01:53:11;;;;;;;5.47;4.55;;;19.70;99.90;;;;;;4972568;28;20687;-66
2023/09/28 01:55:37;;;;;;;4.07;3.75;;;19.70;99.90;;;;;;4984236;28;20199;-66
2023/09/28 01:58:07;;;;;;;5.68;4.47;;;19.70;99.90;;;;;;4968931;28;20218;-66
2023/09/28 02:00:34;;;;;;;3.97;3.67;;;19.60;99.90;;;;;;4971316;28;20742;-66
2023/09/28 02:03:03;;;;;;;4.45;4.05;;;19.60;99.90;;;;;;4980870;28;20188;-66
2023/09/28 02:05:32;;;;;;;4.40;4.10;;;19.60;99.90;;;;;;4985371;28;20208;-66
2023/09/28 02:07:59;;;;;;;5.13;4.63;;;19.50;99.90;;;;;;4986927;28;20195;-66
2023/09/28 02:10:26;;;;;;;4.75;4.35;;;19.50;99.90;;;;;;4967881;28;20196;-65
2023/09/28 02:12:53;;;;;;;4.57;4.18;;;19.40;99.90;;;;;;4989449;28;20195;-65
2023/09/28 02:15:22;;;;;;;4.03;3.72;;;19.40;99.90;;;;;;4967386;28;20208;-65
2023/09/28 02:17:50;;;;;;;4.13;3.80;;;19.70;99.90;;;;;;4968251;28;20210;-65
2023/09/28 02:20:20;;;;;;;4.18;3.85;;;19.40;99.90;;;;;;4974883;28;20238;-66
2023/09/28 02:22:47;;;;;;;3.58;3.33;;;19.40;99.90;;;;;;4972836;28;20655;-66
2023/09/28 02:25:15;;;;;;;4.10;3.70;;;19.40;99.90;;;;;;4988242;28;20215;-66
2023/09/28 02:27:43;;;;;;;2.88;2.67;;;19.40;99.90;;;;;;4992619;28;20196;-67
2023/09/28 02:30:11;;;;;;;3.63;3.35;;;19.40;99.90;;;;;;4987095;28;20220;-67
2023/09/28 02:32:42;;;;;;;3.70;3.40;;;19.40;99.90;;;;;;4993102;28;20289;-67
2023/09/28 02:35:09;;;;;;;3.47;3.22;;;19.30;99.90;;;;;;4975115;28;20215;-67
2023/09/28 02:37:36;;;;;;;3.47;3.28;;;19.30;99.90;;;;;;4989445;28;20637;-67
2023/09/28 02:40:04;;;;;;;3.17;2.97;;;19.30;99.90;;;;;;4990182;28;20668;-67
2023/09/28 02:42:31;;;;;;;4.10;3.80;;;19.30;99.90;;;;;;4975529;28;20288;-67
2023/09/28 02:44:58;;;;;;;3.22;2.92;;;19.30;99.90;;;;;;4988352;28;20705;-67
2023/09/28 02:47:25;;;;;;;2.83;2.60;;;19.20;99.90;;;;;;4991476;28;20630;-67
2023/09/28 02:49:53;;;;;;;2.85;2.65;;;19.20;99.90;;;;;;4987984;28;20281;-66
2023/09/28 02:52:20;;;;;;;3.10;2.80;;;19.20;99.90;;;;;;4970267;28;20188;-67
2023/09/28 02:54:46;;;;;;;3.20;3.00;;;19.20;99.90;;;;;;4992771;28;20548;-67
2023/09/28 02:57:15;;;;;;;3.80;3.40;;;19.20;99.90;;;;;;4983002;28;20207;-67
2023/09/28 02:59:41;;;;;;;3.45;3.25;;;19.20;99.90;;;;;;4991118;28;20196;-67
2023/09/28 03:02:13;;;;;;;3.50;3.20;;;19.20;99.90;;;;;;4975551;28;20278;-67
2023/09/28 03:04:40;;;;;;;4.60;4.07;;;19.10;99.90;;;;;;4986117;28;20603;-66
2023/09/28 03:07:08;;;;;;;3.55;3.25;;;19.00;99.90;;;;;;4975665;28;20204;-65
2023/09/28 03:09:35;;;;;;;3.75;3.45;;;19.00;99.90;;;;;;4985516;28;20203;-65
2023/09/28 03:12:03;;;;;;;3.90;3.55;;;19.00;99.90;;;;;;4989058;28;20203;-66
2023/09/28 03:14:29;;;;;;;4.28;3.92;;;19.00;99.90;;;;;;4975025;28;20640;-66
2023/09/28 03:16:56;;;;;;;3.95;3.65;;;19.00;99.90;;;;;;4974241;28;20362;-66
2023/09/28 03:19:22;;;;;;;3.97;3.55;;;18.90;99.90;;;;;;4986186;28;20279;-66
2023/09/28 03:21:53;;;;;;;3.67;3.38;;;18.90;99.90;;;;;;4974627;28;20208;-66
2023/09/28 03:24:22;;;;;;;3.58;3.28;;;18.90;99.90;;;;;;4992038;28;20192;-66
2023/09/28 03:26:49;;;;;;;3.85;3.47;;;18.90;99.90;;;;;;4985385;28;20282;-66
2023/09/28 03:29:16;;;;;;;3.72;3.42;;;18.90;99.90;;;;;;4971029;28;20208;-66
2023/09/28 03:31:43;;;;;;;4.53;4.10;;;18.90;99.90;;;;;;4987789;28;20649;-65
2023/09/28 03:34:09;;;;;;;3.60;3.30;;;18.90;99.90;;;;;;4986291;28;20583;-65
2023/09/28 03:36:36;;;;;;;3.50;3.20;;;18.90;99.90;;;;;;4970703;28;20259;-66
2023/09/28 03:39:03;;;;;;;3.20;3.00;;;19.00;99.90;;;;;;4965838;28;20213;-66
2023/09/28 03:41:32;;;;;;;3.20;2.88;;;18.90;99.90;;;;;;4988182;28;20203;-66
2023/09/28 03:43:59;;;;;;;2.78;2.58;;;18.90;99.90;;;;;;4992065;28;20208;-66
2023/09/28 03:46:26;;;;;;;3.92;3.63;;;18.90;99.90;;;;;;4987417;28;20255;-66
2023/09/28 03:48:53;;;;;;;3.55;3.25;;;18.90;99.90;;;;;;4961577;28;20205;-66
2023/09/28 03:51:20;;;;;;;3.83;3.53;;;18.90;99.90;;;;;;4984886;28;20262;-66
2023/09/28 03:53:47;;;;;;;3.10;2.90;;;18.80;99.90;;;;;;4987486;28;20275;-66
2023/09/28 03:56:14;;;;;;;3.10;2.90;;;18.80;99.90;;;;;;4983689;28;20224;-65
2023/09/28 03:58:42;;;;;;;4.15;3.78;;;18.80;99.90;;;;;;4990836;28;20248;-66
2023/09/28 04:01:09;;;;;;;4.25;3.85;;;18.80;99.90;;;;;;4987924;28;20259;-66
2023/09/28 04:03:36;;;;;;;4.13;3.72;;;18.80;99.90;;;;;;4984117;28;20225;-66
2023/09/28 04:06:03;;;;;;;3.70;3.40;;;18.80;99.90;;;;;;4968659;28;20227;-65
2023/09/28 04:08:30;;;;;;;3.85;3.50;;;18.80;99.90;;;;;;4987420;28;20223;-66
2023/09/28 04:10:57;;;;;;;3.03;2.83;;;18.70;99.90;;;;;;4991138;28;20258;-66
2023/09/28 04:13:25;;;;;;;4.10;3.70;;;18.70;99.90;;;;;;4991707;28;20267;-66
2023/09/28 04:15:54;;;;;;;4.07;3.78;;;18.70;99.90;;;;;;4984764;28;20283;-65
2023/09/28 04:18:21;;;;;;;3.50;3.30;;;18.60;99.90;;;;;;4989430;28;20243;-65
2023/09/28 04:20:48;;;;;;;3.47;3.28;;;18.60;99.90;;;;;;4973776;28;20258;-65
2023/09/28 04:23:15;;;;;;;3.50;3.20;;;18.60;99.90;;;;;;4969732;28;20258;-65
2023/09/28 04:25:42;;;;;;;3.45;3.15;;;18.60;99.90;;;;;;4988798;28;20207;-66
2023/09/28 04:28:12;;;;;;;3.47;3.17;;;18.60;99.90;;;;;;4991122;28;20195;-66
2023/09/28 04:30:39;;;;;;;2.50;2.30;;;18.60;99.90;;;;;;4969211;28;20655;-66
2023/09/28 04:33:08;;;;;;;3.25;3.05;;;18.60;99.90;;;;;;4971561;28;20342;-65
2023/09/28 04:35:35;;;;;;;2.95;2.75;;;18.60;99.90;;;;;;4970582;28;20196;-66
2023/09/28 04:38:03;;;;;;;3.72;3.42;;;18.60;99.90;;;;;;4972475;28;20250;-66
2023/09/28 04:40:31;;;;;;;4.72;4.32;;;18.60;99.90;;;;;;4990472;28;20204;-65
2023/09/28 04:42:59;;;;;;;5.20;4.38;;;18.60;99.90;;;;;;4985989;28;20205;-66
2023/09/28 04:45:26;;;;;;;5.15;4.75;;;18.60;99.90;;;;;;4988864;28;20262;-65
2023/09/28 04:47:53;;;;;;;4.70;4.30;;;18.50;99.90;;;;;;4991003;28;20275;-65
2023/09/28 04:50:22;;;;;;;4.35;3.95;;;18.50;99.90;;;;;;4985190;28;20235;-65
2023/09/28 04:52:49;;;;;;;8.38;5.55;;;18.40;99.90;;;;;;4989798;28;20296;-65
2023/09/28 04:55:16;;;;;;;4.47;3.92;;;18.40;99.90;;;;;;4989944;28;20250;-65
2023/09/28 04:57:43;;;;;;;4.95;4.43;;;18.40;99.90;;;;;;4985670;28;20208;-67
2023/09/28 05:00:15;;;;;;;4.97;4.45;;;18.40;99.90;;;;;;4990312;28;20196;-67
2023/09/28 05:02:43;;;;;;;4.10;3.75;;;18.40;99.90;;;;;;4990754;28;20295;-67
2023/09/28 05:05:11;;;;;;;4.38;3.90;;;18.30;99.90;;;;;;4985226;28;20673;-67
2023/09/28 05:07:39;;;;;;;6.30;4.20;;;18.20;99.90;;;;;;4972798;28;20254;-67
2023/09/28 05:10:08;;;;;;;4.20;3.65;;;18.20;99.90;;;;;;4985624;28;20262;-65
2023/09/28 05:12:35;;;;;;;4.15;3.75;;;18.20;99.90;;;;;;4985093;28;20188;-65
2023/09/28 05:15:03;;;;;;;4.03;3.40;;;18.20;99.90;;;;;;4989708;28;20311;-65
2023/09/28 05:17:31;;;;;;;3.45;3.15;;;18.20;99.90;;;;;;4985052;28;20200;-65
2023/09/28 05:19:58;;;;;;;4.32;3.85;;;18.20;99.90;;;;;;4988476;28;20214;-65
2023/09/28 05:22:26;;;;;;;4.68;3.63;;;18.30;99.90;;;;;;4987961;28;20695;-66
2023/09/28 05:24:54;;;;;;;4.00;3.60;;;18.30;99.90;;;;;;4985396;28;20203;-65
2023/09/28 05:27:22;;;;;;;4.40;3.67;;;18.30;99.90;;;;;;4986159;28;20277;-65
2023/09/28 05:29:49;;;;;;;3.78;3.40;;;18.20;99.90;;;;;;4988862;28;20303;-65
2023/09/28 05:32:16;;;;;;;6.03;3.67;;;18.30;99.90;;;;;;4986111;28;20220;-65
2023/09/28 05:34:43;;;;;;;9.10;4.22;;;18.20;99.90;;;;;;4986928;28;20282;-65
2023/09/28 05:37:10;;;;;;;5.63;4.72;;;18.20;99.90;;;;;;4989416;28;20203;-65
2023/09/28 05:39:38;;;;;;;7.53;3.70;;;18.20;99.90;;;;;;4983793;28;20211;-65
2023/09/28 05:42:07;;;;;;;8.95;4.32;;;18.30;99.90;;;;;;4968746;28;20348;-66
2023/09/28 05:44:34;;;;;;;3.78;3.47;;;18.30;99.90;;;;;;4986923;28;20235;-65
2023/09/28 05:47:02;;;;;;;5.07;3.95;;;18.30;99.90;;;;;;4984031;28;20237;-65
2023/09/28 05:49:29;;;;;;;3.60;3.30;;;18.30;99.90;;;;;;4989650;28;20355;-65
2023/09/28 05:51:56;;;;;;;3.85;3.55;;;18.40;99.90;;;;;;4965446;28;20288;-65
2023/09/28 05:54:23;;;;;;;4.28;3.30;;;18.40;99.90;;;;;;4984708;28;20224;-65
2023/09/28 05:56:51;;;;;;;3.50;3.20;;;18.40;99.90;;;;;;4988846;28;20287;-66
2023/09/28 05:59:19;;;;;;;3.65;3.15;;;18.50;99.90;;;;;;4988839;28;20200;-66
2023/09/28 06:01:46;;;;;;;4.00;3.70;;;18.40;99.90;;;;;;4985173;28;20580;-67
2023/09/28 06:04:14;;;;;;;4.25;3.85;;;18.50;99.90;;;;;;4989597;28;20226;-67
2023/09/28 06:06:41;;;;;;;4.13;3.75;;;18.50;99.90;;;;;;4986471;28;20196;-66
2023/09/28 06:09:08;;;;;;;4.43;4.03;;;18.50;99.90;;;;;;4979384;28;20196;-67
2023/09/28 06:11:35;;;;;;;3.67;3.38;;;18.50;99.90;;;;;;4984059;28;20654;-65
2023/09/28 06:14:02;;;;;;;4.53;3.80;;;18.50;99.90;;;;;;4987287;28;20739;-65
2023/09/28 06:16:30;;;;;;;4.93;4.38;;;18.50;99.90;;;;;;4986040;28;20207;-66
2023/09/28 06:18:58;;;;;;;9.95;5.20;;;18.50;99.90;;;;;;4988662;28;20306;-65
2023/09/28 06:21:25;;;;;;;6.38;5.60;;;18.50;99.90;;;;;;4980374;28;20211;-66
2023/09/28 06:23:52;;;;;;;9.35;5.97;;;18.50;99.90;;;;;;4987747;28;20262;-66
2023/09/28 06:26:19;;;;;;;10.00;6.60;;;18.50;99.90;;;;;;4982246;28;20237;-65
2023/09/28 06:28:46;;;;;;;9.05;6.93;;;18.50;99.90;;;;;;4979309;28;20615;-66
2023/09/28 06:31:14;;;;;;;6.88;5.80;;;18.50;99.90;;;;;;4971036;28;20216;-66
2023/09/28 06:33:43;;;;;;;6.57;5.25;;;18.50;99.90;;;;;;4986847;28;20536;-66
2023/09/28 06:36:10;;;;;;;8.55;6.72;;;18.50;99.90;;;;;;4980379;28;20263;-65
2023/09/28 06:38:37;;;;;;;8.40;6.13;;;18.40;99.90;;;;;;4970150;28;20707;-65
2023/09/28 06:41:04;;;;;;;5.95;5.20;;;18.40;99.90;;;;;;4981337;28;20540;-66
2023/09/28 06:43:31;;;;;;;5.85;5.32;;;18.40;99.90;;;;;;4976478;28;20300;-65
2023/09/28 06:45:58;;;;;;;9.68;6.85;;;18.40;99.90;;;;;;4987481;28;20270;-65
2023/09/28 06:48:25;;;;;;;8.77;5.40;;;18.40;99.90;;;;;;4968211;28;20263;-66
2023/09/28 06:50:57;;;;;;;7.18;6.45;;;18.30;99.90;;;;;;4979953;28;20208;-65
2023/09/28 06:53:25;;;;;;;8.20;6.43;;;18.40;99.90;;;;;;4970312;28;20184;-66
2023/09/28 06:55:53;;;;;;;9.25;7.47;;;18.40;99.90;;;;;;4981772;28;20246;-67
2023/09/28 06:58:20;;;;;;;11.52;8.38;;;18.40;99.90;;;;;;4988628;28;20270;-65
2023/09/28 07:00:47;;;;;;;9.82;7.72;;;18.40;99.90;;;;;;4987434;28;20207;-66
2023/09/28 07:03:16;;;;;;;8.20;7.05;;;18.40;99.90;;;;;;4984469;28;20326;-65
2023/09/28 07:05:43;;;;;;;6.93;6.13;;;18.40;99.90;;;;;;4964654;28;20216;-65
2023/09/28 07:08:12;;;;;;;6.20;5.60;;;18.40;99.90;;;;;;4991396;28;20278;-66
2023/09/28 07:10:39;;;;;;;9.90;8.23;;;18.50;99.90;;;;;;4977511;28;20204;-65
2023/09/28 07:13:07;;;;;;;7.00;6.40;;;18.60;99.90;;;;;;4988753;28;20192;-65
2023/09/28 07:15:36;;;;;;;7.07;6.15;;;18.60;99.90;;;;;;4988510;28;20238;-65
2023/09/28 07:18:03;;;;;;;10.73;5.47;;;18.70;99.90;;;;;;4984026;28;20203;-65
2023/09/28 07:20:31;;;;;;;6.15;5.53;;;18.70;99.90;;;;;;4983178;28;20211;-66
2023/09/28 07:22:58;;;;;;;8.60;6.82;;;18.80;99.90;;;;;;4989121;28;20261;-66
2023/09/28 07:25:27;;;;;;;7.32;6.38;;;18.80;99.90;;;;;;4985268;28;20208;-66
2023/09/28 07:27:55;;;;;;;6.68;5.68;;;18.80;99.90;;;;;;4982302;28;20286;-66
2023/09/28 07:30:22;;;;;;;8.13;7.32;;;18.90;99.90;;;;;;4970378;28;20200;-66
2023/09/28 07:32:50;;;;;;;8.55;7.65;;;18.90;99.90;;;;;;4980323;28;20566;-66
2023/09/28 07:35:18;;;;;;;8.75;7.85;;;19.00;99.90;;;;;;4990729;28;20196;-65
2023/09/28 07:37:45;;;;;;;11.18;8.13;;;19.00;99.90;;;;;;4970973;28;20659;-65
2023/09/28 07:40:15;;;;;;;12.43;9.30;;;19.10;99.90;;;;;;4964252;28;20310;-66
2023/09/28 07:42:47;;;;;;;13.38;8.85;;;19.30;99.90;;;;;;4988724;28;20298;-65
2023/09/28 07:45:14;;;;;;;10.32;7.95;;;19.90;99.90;;;;;;4986107;28;20679;-66
2023/09/28 07:47:42;;;;;;;12.90;9.70;;;20.80;99.90;;;;;;4987315;28;20747;-66
2023/09/28 07:50:11;;;;;;;9.15;7.95;;;21.30;99.90;;;;;;4966930;28;20626;-66
2023/09/28 07:52:39;;;;;;;10.52;8.30;;;22.40;99.90;;;;;;4990196;28;20203;-65
2023/09/28 07:55:07;;;;;;;10.30;8.18;;;23.50;99.90;;;;;;4968950;28;20622;-66
2023/09/28 07:57:34;;;;;;;8.80;7.20;;;24.10;99.90;;;;;;4989221;28;20274;-65
2023/09/28 08:00:04;;;;;;;12.30;8.57;;;23.80;99.90;;;;;;4987407;28;20228;-66
2023/09/28 08:02:38;;;;;;;11.45;8.40;;;23.20;99.90;;;;;;4987101;28;20247;-66
2023/09/28 08:05:06;;;;;;;9.45;7.57;;;22.60;99.90;;;;;;4990099;28;20302;-65
2023/09/28 08:07:33;;;;;;;8.32;6.70;;;22.10;99.90;;;;;;4970328;28;20246;-65
2023/09/28 08:10:01;;;;;;;6.65;5.82;;;21.80;99.90;;;;;;4989122;28;20268;-66
2023/09/28 08:12:28;;;;;;;9.57;8.00;;;21.60;99.90;;;;;;4972046;28;20660;-65
2023/09/28 08:14:55;;;;;;;8.52;7.07;;;21.50;99.90;;;;;;4967142;28;20204;-65
2023/09/28 08:17:23;;;;;;;8.43;6.55;;;21.40;99.90;;;;;;4968126;28;20201;-66
2023/09/28 08:19:51;;;;;;;9.77;6.82;;;21.30;99.90;;;;;;4970259;28;20204;-65
2023/09/28 08:22:18;;;;;;;10.27;8.25;;;21.30;99.90;;;;;;4985940;28;20207;-66
2023/09/28 08:24:45;;;;;;;9.68;7.53;;;21.20;99.90;;;;;;4988501;28;20203;-65
2023/09/28 08:27:12;;;;;;;8.18;5.90;;;21.10;99.90;;;;;;4987884;28;20240;-66
2023/09/28 08:29:39;;;;;;;7.72;6.32;;;21.00;99.90;;;;;;4984867;28;20199;-65
2023/09/28 08:32:07;;;;;;;10.65;7.72;;;20.90;99.90;;;;;;4989713;28;20628;-64
2023/09/28 08:34:36;;;;;;;9.18;7.18;;;20.90;99.90;;;;;;4986759;28;20331;-65
2023/09/28 08:37:03;;;;;;;8.65;7.63;;;20.90;99.90;;;;;;4988947;28;20576;-65
2023/09/28 08:39:31;;;;;;;12.73;9.55;;;20.90;99.90;;;;;;4989598;28;20513;-65
2023/09/28 08:42:02;;;;;;;11.77;8.32;;;20.90;99.90;;;;;;4980389;28;20214;-65
2023/09/28 08:44:32;;;;;;;15.00;8.82;;;20.90;99.90;;;;;;4984863;28;20251;-66
2023/09/28 08:47:00;;;;;;;10.23;8.00;;;20.90;99.90;;;;;;4988027;28;20247;-65
2023/09/28 08:49:29;;;;;;;10.23;8.38;;;21.00;99.90;;;;;;4964781;28;20234;-66
2023/09/28 08:51:58;;;;;;;9.77;7.88;;;21.00;99.90;;;;;;4981812;28;20196;-65
2023/09/28 08:54:25;;;;;;;10.05;8.23;;;21.00;99.90;;;;;;4970426;28;20200;-65
2023/09/28 08:56:54;;;;;;;11.45;7.88;;;21.00;99.90;;;;;;4967239;28;20224;-66
2023/09/28 08:59:23;;;;;;;9.57;7.55;;;21.10;99.90;;;;;;4988791;28;20283;-65
2023/09/28 09:01:52;;;;;;;12.15;7.45;;;21.10;99.90;;;;;;4987291;28;20200;-66
2023/09/28 09:04:19;;;;;;;10.57;7.18;;;21.10;99.90;;;;;;4967325;28;20885;-65
2023/09/28 09:06:48;;;;;;;8.68;6.85;;;21.20;99.90;;;;;;4982419;28;20299;-65
2023/09/28 09:09:20;;;;;;;6.95;6.25;;;21.20;99.90;;;;;;4984086;28;20196;-65
2023/09/28 09:11:51;;;;;;;6.32;5.72;;;21.30;99.90;;;;;;4964975;28;20231;-65
2023/09/28 09:14:19;;;;;;;8.15;5.60;;;21.40;99.90;;;;;;4988858;28;20227;-65
2023/09/28 09:16:46;;;;;;;11.38;6.50;;;21.40;99.90;;;;;;4970886;28;20203;-65
2023/09/28 09:19:15;;;;;;;10.40;6.60;;;21.50;99.90;;;;;;4982450;28;20612;-65
2023/09/28 09:21:43;;;;;;;6.80;6.15;;;21.50;99.90;;;;;;4971509;28;20624;-65
2023/09/28 09:24:13;;;;;;;11.13;6.70;;;21.60;99.90;;;;;;4965261;28;20305;-66
2023/09/28 09:26:43;;;;;;;7.03;6.32;;;21.70;99.90;;;;;;4979830;28;20520;-66
2023/09/28 09:29:12;;;;;;;7.50;6.50;;;21.70;99.90;;;;;;4987907;28;20242;-66
2023/09/28 09:31:40;;;;;;;7.40;6.68;;;21.80;99.90;;;;;;4976672;28;20196;-65
2023/09/28 09:34:11;;;;;;;8.15;5.60;;;21.80;99.90;;;;;;4987888;28;20192;-66
2023/09/28 09:36:38;;;;;;;9.80;5.90;;;21.90;99.90;;;;;;4987461;28;20203;-66
2023/09/28 09:39:06;;;;;;;7.47;6.07;;;22.00;99.90;;;;;;4968682;28;20311;-67
2023/09/28 09:41:45;;;;;;;11.60;6.50;;;22.10;99.90;;;;;;4970236;28;20446;-66
2023/09/28 09:44:18;;;;;;;6.05;5.45;;;22.20;99.90;;;;;;4984418;28;20243;-66
2023/09/28 09:46:47;;;;;;;5.80;5.20;;;22.90;99.90;;;;;;4983331;28;20191;-68
2023/09/28 09:49:16;;;;;;;6.43;5.07;;;24.00;99.90;;;;;;4969341;28;20196;-67
2023/09/28 09:51:45;;;;;;;4.97;4.47;;;24.70;99.90;;;;;;4970856;28;20208;-67
2023/09/28 09:54:13;;;;;;;5.50;4.68;;;25.20;99.90;;;;;;4984043;28;20204;-67
2023/09/28 09:56:48;;;;;;;5.28;4.75;;;26.00;99.90;;;;;;4970347;28;20235;-67
2023/09/28 09:59:17;;;;;;;7.82;5.50;;;26.90;99.90;;;;;;4984910;28;20978;-67
2023/09/28 10:01:47;;;;;;;9.32;4.97;;;27.50;99.90;;;;;;4967793;28;20228;-68
2023/09/28 10:04:16;;;;;;;8.88;5.18;;;28.10;99.80;;;;;;4988735;28;20238;-67
2023/09/28 10:06:47;;;;;;;7.97;4.50;;;28.60;98.40;;;;;;4967024;28;20200;-67
2023/09/28 10:09:18;;;;;;;5.50;4.72;;;29.10;97.70;;;;;;4981728;28;20749;-67
2023/09/28 10:11:49;;;;;;;7.85;4.80;;;29.60;96.30;;;;;;4968556;28;20200;-68
2023/09/28 10:14:18;;;;;;;8.38;4.78;;;30.00;95.30;;;;;;4979081;28;20684;-68
2023/09/28 10:16:47;;;;;;;14.00;4.85;;;30.30;93.40;;;;;;4980754;28;20196;-68
2023/09/28 10:19:19;;;;;;;6.18;4.68;;;30.50;91.80;;;;;;4980653;28;20590;-67
2023/09/28 10:21:46;;;;;;;7.05;5.38;;;30.70;91.90;;;;;;4982339;28;20188;-67
2023/09/28 10:24:15;;;;;;;7.72;4.15;;;31.00;91.20;;;;;;4981558;28;20219;-67
2023/09/28 10:26:43;;;;;;;7.65;4.63;;;31.40;89.30;;;;;;4983814;28;20212;-67
2023/09/28 10:29:12;;;;;;;9.27;5.18;;;31.70;86.50;;;;;;4979923;28;20246;-68
2023/09/28 10:31:41;;;;;;;5.90;4.93;;;31.70;79.80;;;;;;4985466;28;20287;-68
2023/09/28 10:34:09;;;;;;;4.68;4.05;;;31.70;78.90;;;;;;4961569;28;20311;-68
2023/09/28 10:36:38;;;;;;;5.25;3.90;;;31.80;78.50;;;;;;4987990;28;20231;-68
2023/09/28 10:39:12;;;;;;;5.65;4.10;;;31.90;75.50;;;;;;4970508;28;20211;-67
2023/09/28 10:41:41;;;;;;;5.82;4.00;;;31.90;75.00;;;;;;4965328;28;20191;-68
2023/09/28 10:44:20;;;;;;;6.57;4.00;;;32.00;74.40;;;;;;4985514;28;20258;-68
2023/09/28 10:46:48;;;;;;;8.25;4.05;;;32.00;72.00;;;;;;4975978;28;20195;-68
2023/09/28 10:49:22;;;;;;;4.40;3.80;;;32.00;70.20;;;;;;4987008;28;20307;-68
2023/09/28 10:51:49;;;;;;;6.57;3.97;;;32.00;69.80;;;;;;4971116;28;20632;-67
2023/09/28 10:54:16;;;;;;;6.68;3.65;;;32.10;67.40;;;;;;4970690;28;20286;-68
2023/09/28 10:56:43;;;;;;;4.40;4.00;;;32.10;66.60;;;;;;4989738;28;20200;-68
2023/09/28 10:59:12;;;;;;;5.22;4.30;;;32.10;65.90;;;;;;4992040;28;20196;-67
2023/09/28 11:01:45;;;;;;;7.68;4.68;;;31.90;65.30;;;;;;4989466;28;20204;-67
2023/09/28 11:04:13;;;;;;;6.05;4.35;;;31.90;65.10;;;;;;4987752;28;20648;-68
2023/09/28 11:06:41;;;;;;;5.05;3.85;;;31.70;63.90;;;;;;4987574;28;20207;-69
2023/09/28 11:09:09;;;;;;;3.70;3.40;;;31.30;64.50;;;;;;4969971;28;20282;-68
2023/09/28 11:11:37;;;;;;;4.38;4.05;;;30.90;65.30;;;;;;4987925;28;20228;-68
2023/09/28 11:14:05;;;;;;;4.50;4.10;;;30.40;65.50;;;;;;4989409;28;20192;-67
2023/09/28 11:16:34;;;;;;;3.60;3.30;;;29.90;66.10;;;;;;4978968;28;20681;-67
2023/09/28 11:19:03;;;;;;;3.50;3.22;;;29.60;67.40;;;;;;4969942;28;20207;-68
2023/09/28 11:21:31;;;;;;;4.50;3.40;;;29.30;68.20;;;;;;4985008;28;20196;-68
2023/09/28 11:23:58;;;;;;;6.80;3.83;;;29.00;68.40;;;;;;4982587;28;20400;-67
2023/09/28 11:26:27;;;;;;;6.75;4.28;;;28.80;68.30;;;;;;4990261;28;20204;-67
2023/09/28 11:28:56;;;;;;;4.45;3.42;;;28.50;67.20;;;;;;4973738;28;20300;-67
2023/09/28 11:31:23;;;;;;;5.30;4.05;;;28.40;68.00;;;;;;4986566;28;20196;-68
2023/09/28 11:33:50;;;;;;;6.60;4.32;;;28.40;68.60;;;;;;4991879;28;20556;-67
2023/09/28 11:36:21;;;;;;;5.20;4.45;;;28.20;67.20;;;;;;4973450;28;20200;-67
2023/09/28 11:38:49;;;;;;;7.00;3.88;;;27.90;67.30;;;;;;4984339;28;20218;-67
2023/09/28 11:41:17;;;;;;;6.72;4.20;;;27.70;68.00;;;;;;4972458;28;20291;-67
2023/09/28 11:43:47;;;;;;;6.82;4.60;;;27.50;68.50;;;;;;4987766;28;20537;-68
2023/09/28 11:46:19;;;;;;;5.05;3.58;;;27.30;69.20;;;;;;4987401;28;20282;-67
2023/09/28 11:48:46;;;;;;;5.18;3.60;;;27.20;69.90;;;;;;4989515;28;20188;-67
2023/09/28 11:51:16;;;;;;;4.20;3.80;;;27.20;70.30;;;;;;4970288;28;20291;-67
2023/09/28 11:53:45;;;;;;;3.78;3.47;;;27.20;70.70;;;;;;4987882;28;20302;-67
2023/09/28 11:56:12;;;;;;;4.53;4.10;;;27.30;70.80;;;;;;4986298;28;20192;-68
2023/09/28 11:58:39;;;;;;;5.20;3.88;;;27.20;70.60;;;;;;4985175;28;20196;-67
2023/09/28 12:01:09;;;;;;;5.22;4.03;;;27.10;70.10;;;;;;4988323;28;20211;-67
2023/09/28 12:03:38;;;;;;;6.18;4.05;;;27.10;70.60;;;;;;4986061;28;20204;-67
2023/09/28 12:06:05;;;;;;;7.88;4.32;;;27.00;70.90;;;;;;4984422;28;20216;-67
2023/09/28 12:08:32;;;;;;;6.20;3.90;;;27.00;70.60;;;;;;4973043;28;20299;-67
2023/09/28 12:11:00;;;;;;;5.78;3.83;;;27.00;70.80;;;;;;4967929;28;20318;-67
2023/09/28 12:13:27;;;;;;;7.07;4.00;;;27.10;71.00;;;;;;4986069;28;20691;-67
2023/09/28 12:15:56;;;;;;;4.43;3.92;;;27.20;71.10;;;;;;4967076;28;20695;-67
2023/09/28 12:18:23;;;;;;;4.78;4.05;;;27.30;71.40;;;;;;4985441;28;20678;-67
2023/09/28 12:20:50;;;;;;;5.13;3.80;;;27.60;71.10;;;;;;4968006;28;20655;-67
2023/09/28 12:23:18;;;;;;;8.50;4.38;;;28.00;70.60;;;;;;4989850;28;20663;-67
2023/09/28 12:25:45;;;;;;;8.40;4.32;;;28.40;69.20;;;;;;4971131;28;20250;-68
2023/09/28 12:28:14;;;;;;;3.60;3.30;;;28.80;68.50;;;;;;4968874;28;20212;-68
2023/09/28 12:30:41;;;;;;;5.55;3.92;;;29.20;68.50;;;;;;4990184;28;20192;-68
2023/09/28 12:33:09;;;;;;;4.10;3.70;;;29.70;67.90;;;;;;4990397;28;20250;-68
2023/09/28 12:35:39;;;;;;;4.57;4.10;;;30.00;66.50;;;;;;4985140;28;20203;-69
2023/09/28 12:38:07;;;;;;;7.47;4.80;;;30.10;64.60;;;;;;4989305;28;20595;-68
2023/09/28 12:40:35;;;;;;;7.32;4.22;;;30.20;63.80;;;;;;4987226;28;20606;-69
2023/09/28 12:43:02;;;;;;;6.50;4.32;;;30.20;63.10;;;;;;4973380;28;20807;-68
2023/09/28 12:45:34;;;;;;;8.77;4.20;;;30.30;62.80;;;;;;4989392;28;20248;-69
2023/09/28 12:48:02;;;;;;;12.73;4.82;;;30.40;62.50;;;;;;4985149;28;20275;-69
2023/09/28 12:50:29;;;;;;;8.00;4.30;;;30.50;61.40;;;;;;4991122;28;20298;-69